Flight Track Log - Related Links

Times and Time Zones

All times are in EDT time to prevent confusion due to time zone crossing. See the LNI619 flight status page for this flight to view local times or setup timezone preferences in your user account.

Time Position Orientation Groundspeed Altitude Reporting Facility
EDT Latitude Longitude Course Direction KTS MPH feet Rate Location/Type
Mon 07:56:06 AM -5.4110 106.7390 164° South 267 307 11,600  Level FlightAware ADS-B
Mon 07:56:37 AM -5.4480 106.7490 165° South 237 273 11,200 -909 Descending FlightAware ADS-B
Mon 07:57:12 AM -5.4860 106.7600 164° South 248 285 10,600 -1,200 Descending FlightAware ADS-B
Mon 07:57:42 AM -5.5200 106.7690 165° South 251 289 9,900 -1,320 Descending FlightAware ADS-B
Mon 07:58:02 AM -5.5430 106.7760 163° South 249 287 9,500 -900 Descending FlightAware ADS-B
Mon 07:58:22 AM -5.5630 106.7810 166° South 245 282 9,300 -1,029 Descending FlightAware ADS-B
Mon 07:58:37 AM -5.5810 106.7870 162° South 242 278 8,900 -1,371 Descending FlightAware ADS-B
Mon 07:58:57 AM -5.6020 106.7920 167° South 242 278 8,500 -1,350 Descending FlightAware ADS-B
Mon 07:59:17 AM -5.6240 106.7980 165° South 241 277 8,000 -1,467 Descending FlightAware ADS-B
Mon 07:59:42 AM -5.6520 106.8060 164° South 240 276 7,400 -1,200 Descending FlightAware ADS-B
Mon 07:59:52 AM -5.6610 106.8090 162° South 239 275 7,300 -1,029 Descending FlightAware ADS-B
Mon 08:00:17 AM -5.6860 106.8160 164° South 237 273 6,800 -1,067 Descending FlightAware ADS-B
Mon 08:00:37 AM -5.7100 106.8230 164° South 233 268 6,500 -1,050 Descending FlightAware ADS-B
Mon 08:00:57 AM -5.7300 106.8280 166° South 232 267 6,100 -1,200 Descending FlightAware ADS-B
Mon 08:01:17 AM -5.7520 106.8340 165° South 231 266 5,700 -1,200 Descending FlightAware ADS-B
Mon 08:01:42 AM -5.7780 106.8410 165° South 230 265 5,200 -1,000 Descending FlightAware ADS-B
Mon 08:01:47 AM -5.7830 106.8410 180° South 230 265 5,200 -960 Level FlightAware ADS-B
Mon 08:02:07 AM -5.8030 106.8400 183° South 229 264 4,800 -1,200 Descending FlightAware ADS-B
Mon 08:02:27 AM -5.8250 106.8380 185° South 229 264 4,400 -1,029 Descending FlightAware ADS-B
Mon 08:02:42 AM -5.8420 106.8370 183° South 229 264 4,200 -900 Descending FlightAware ADS-B
Mon 08:03:07 AM -5.8660 106.8350 185° South 228 262 3,800 -933 Descending FlightAware ADS-B
Mon 08:03:27 AM -5.8890 106.8340 182° South 220 253 3,500 -750 Descending FlightAware ADS-B
Mon 08:03:47 AM -5.9090 106.8320 186° South 209 241 3,300 -600 Descending FlightAware ADS-B
Mon 08:04:07 AM -5.9260 106.8310 183° South 203 234 3,100 -450 Descending FlightAware ADS-B
Mon 08:04:27 AM -5.9460 106.8300 183° South 201 231 3,000 -450 Descending FlightAware ADS-B
Mon 08:04:47 AM -5.9650 106.8280 186° South 201 231 2,800 -533 Descending FlightAware ADS-B
Mon 08:05:12 AM -5.9880 106.8270 182° South 190 219 2,600 -500 Descending FlightAware ADS-B
Mon 08:05:23 AM -5.9980 106.8260 186° South 186 214 2,500 -514 Descending FlightAware ADS-B
Mon 08:05:47 AM -6.0190 106.8240 185° South 181 208 2,300 -533 Descending FlightAware ADS-B
Mon 08:06:08 AM -6.0360 106.8230 183° South 180 207 2,100 -429 Descending FlightAware ADS-B
Mon 08:06:15 AM -6.0420 106.8220 189° South 177 204 2,100  Level FlightAware ADS-B
Mon 08:06:19 AM -6.0450 106.8210 198° South 175 201 2,100  Level FlightAware ADS-B
Mon 08:06:27 AM -6.0490 106.8170 225° Southwest 172 198 2,100  Level FlightAware ADS-B
Mon 08:06:35 AM -6.0520 106.8110 243° Southwest 170 196 2,100  Level FlightAware ADS-B
Mon 08:06:47 AM -6.0560 106.8020 246° West 170 196 2,100  Level FlightAware ADS-B
Mon 08:07:11 AM -6.0630 106.7850 248° West 163 188 2,100 -136 Level FlightAware ADS-B
Mon 08:07:31 AM -6.0690 106.7700 248° West 162 186 2,000 -563 Descending FlightAware ADS-B
Mon 08:07:43 AM -6.0720 106.7620 249° West 159 183 1,800 -750 Descending FlightAware ADS-B
Mon 08:08:03 AM -6.0770 106.7500 247° West 154 177 1,600 -682 Descending FlightAware ADS-B
Mon 08:08:27 AM -6.0840 106.7320 249° West 151 174 1,300 -649 Descending FlightAware ADS-B
Mon 08:08:40 AM -6.0870 106.7250 247° West 150 173 1,200 -667 Descending FlightAware ADS-B
Mon 08:09:03 AM -6.0930 106.7090 249° West 153 176 900 -421 Descending FlightAware ADS-B
Mon 08:09:37 AM -6.1010 106.6900 247° West 152 175 800 -176 Descending FlightAware ADS-B
Mon 08:12:00 AM -6.1256 106.6559 234° Southwest  Level Estimated

Login

Don't have an account? Register now (free) for customized features, flight alerts, and more!